Terminal Aerodrome Forecast
Issued by NWS Shreveport, LA

Home | Current Version | Previous Version | Text Only | Print | Product List | Glossary On
Versions: 1 2 3 4 5 6 7 8 9 10 11 12
000
FTUS44 KSHV 182300
TAFTXK
TAF
KTXK 182339Z 1900/1924 06004KT 6SM BR OVC008
     FM190400 06004KT 5SM BR OVC007
     FM191200 05004KT 3SM -RA BR OVC007
     FM191500 05005KT 3SM -RA BR OVC004
     FM192100 05005KT 5SM BR OVC007=

USA.gov is the U.S. government's official web portal to all federal, state and local government web resources and services.